Time;durP1;ratioP1;P1;durP2;ratioP2;P2;SDS_P1;SDS_P2;PMS_P1;PMS_P2;Temp;Humidity;BMP_temperature;BMP_pressure;BME280_temperature;BME280_humidity;BME280_pressure;Samples;Min_cycle;Max_cycle;Signal;HPM_P1;HPM_P2
2022/07/20 00:01:09;;;;;;;10.75;5.70;;;;;;;19.32;53.15;98917.16;5089100;28;20046;-72
2022/07/20 00:03:34;;;;;;;9.45;5.07;;;;;;;19.29;53.13;98918.66;5089449;28;20059;-73
2022/07/20 00:06:00;;;;;;;10.00;5.53;;;;;;;19.28;53.32;98910.66;5091226;28;20377;-73
2022/07/20 00:11:20;;;;;;;11.48;5.30;;;;;;;19.25;53.33;98917.72;5091330;28;20051;-73
2022/07/20 00:13:47;;;;;;;9.52;5.45;;;;;;;19.25;53.28;98916.91;5091946;28;20050;-72
2022/07/20 00:16:12;;;;;;;9.90;5.45;;;;;;;19.25;53.11;98917.72;5092920;28;20032;-73
2022/07/20 00:18:37;;;;;;;9.27;5.30;;;;;;;19.27;53.26;98915.41;5074461;28;20024;-72
2022/07/20 00:21:03;;;;;;;8.85;5.22;;;;;;;19.29;53.42;98915.06;5092162;28;20686;-72
2022/07/20 00:23:28;;;;;;;7.75;5.18;;;;;;;19.32;53.38;98912.41;5093047;28;20058;-72
2022/07/20 00:25:54;;;;;;;9.85;5.47;;;;;;;19.33;53.31;98911.25;5092852;28;20129;-73
2022/07/20 00:28:19;;;;;;;9.68;5.07;;;;;;;19.36;52.99;98906.97;5093483;28;20032;-73
2022/07/20 00:30:46;;;;;;;11.45;5.03;;;;;;;19.39;53.56;98899.91;5093831;28;20024;-72
2022/07/20 00:33:12;;;;;;;8.20;5.13;;;;;;;19.41;53.73;98919.84;5093279;28;20031;-73
2022/07/20 00:35:37;;;;;;;9.05;5.03;;;;;;;19.42;53.14;98907.53;5093713;28;20422;-73
2022/07/20 00:38:03;;;;;;;9.30;4.90;;;;;;;19.45;53.52;98904.91;5093770;28;20464;-73
2022/07/20 00:40:28;;;;;;;11.45;5.07;;;;;;;19.45;53.30;98899.34;5093719;28;20380;-73
2022/07/20 00:42:54;;;;;;;7.60;4.82;;;;;;;19.47;53.11;98902.59;5093571;28;20031;-73
2022/07/20 00:45:19;;;;;;;9.48;5.22;;;;;;;19.48;53.20;98898.66;5093365;28;20036;-73
2022/07/20 00:47:44;;;;;;;9.57;4.85;;;;;;;19.48;53.46;98900.59;5092783;28;20063;-73
2022/07/20 00:50:10;;;;;;;12.10;4.95;;;;;;;19.48;53.10;98892.25;5092028;28;20139;-73
2022/07/20 00:52:35;;;;;;;11.43;4.75;;;;;;;19.48;53.20;98900.59;5092125;28;20039;-73
2022/07/20 00:55:01;;;;;;;8.20;4.80;;;;;;;19.47;53.17;98899.81;5092823;28;20054;-73
2022/07/20 00:57:27;;;;;;;11.40;5.20;;;;;;;19.46;53.09;98902.94;5092654;28;20073;-73
2022/07/20 00:59:52;;;;;;;9.07;4.70;;;;;;;19.45;53.02;98898.53;5092014;28;20028;-73
2022/07/20 01:02:18;;;;;;;9.35;5.18;;;;;;;19.43;53.11;98893.31;5092300;28;20047;-73
2022/07/20 01:04:44;;;;;;;10.05;4.95;;;;;;;19.41;53.03;98903.97;5092308;28;20035;-73
2022/07/20 01:07:10;;;;;;;9.18;4.85;;;;;;;19.41;53.30;98903.13;5092201;28;20020;-73
2022/07/20 01:09:35;;;;;;;9.63;4.55;;;;;;;19.40;53.18;98899.56;5092048;28;20024;-73
2022/07/20 01:12:01;;;;;;;8.27;4.80;;;;;;;19.37;53.28;98904.97;5073669;28;20043;-72
2022/07/20 01:14:26;;;;;;;7.55;4.72;;;;;;;19.34;53.36;98909.28;5092182;28;20549;-73
2022/07/20 01:16:52;;;;;;;9.35;4.80;;;;;;;19.33;53.51;98905.69;5073174;28;20028;-73
2022/07/20 01:19:17;;;;;;;12.05;5.22;;;;;;;19.32;53.35;98909.63;5091519;28;20059;-73
2022/07/20 01:21:43;;;;;;;8.13;4.63;;;;;;;19.29;53.15;98903.94;5091396;28;20387;-73
2022/07/20 01:24:13;;;;;;;11.40;4.68;;;;;;;19.27;53.56;98911.81;5091799;28;20578;-73
2022/07/20 01:26:45;;;;;;;7.38;5.05;;;;;;;19.22;53.35;98907.28;5092151;28;20021;-73
2022/07/20 01:29:13;;;;;;;13.00;5.22;;;;;;;19.18;53.71;98915.47;5092311;28;20024;-73
2022/07/20 01:31:39;;;;;;;11.25;5.20;;;;;;;19.16;53.79;98911.44;5074358;28;20490;-73
2022/07/20 01:34:05;;;;;;;9.60;5.03;;;;;;;19.13;53.83;98917.69;5091875;28;20056;-73
2022/07/20 01:36:30;;;;;;;10.27;5.18;;;;;;;19.09;53.85;98914.78;5090433;28;21573;-73
2022/07/20 01:38:55;;;;;;;10.25;5.18;;;;;;;19.09;54.01;98913.94;5088544;28;20031;-73
2022/07/20 01:41:21;;;;;;;8.80;5.40;;;;;;;19.10;54.03;98915.59;5090534;28;20025;-73
2022/07/20 01:43:46;;;;;;;12.15;5.28;;;;;;;19.11;54.10;98908.88;5072516;28;20028;-73
2022/07/20 01:46:12;;;;;;;10.43;4.80;;;;;;;19.07;54.07;98900.41;5091598;28;20101;-73
2022/07/20 01:48:37;;;;;;;12.05;4.95;;;;;;;19.06;54.33;98898.78;5092124;28;20019;-73
2022/07/20 01:51:03;;;;;;;11.38;5.55;;;;;;;19.04;54.06;98901.09;5091700;28;20055;-73
2022/07/20 01:53:29;;;;;;;10.90;4.95;;;;;;;19.04;54.14;98903.88;5092177;28;20390;-73
2022/07/20 01:55:55;;;;;;;9.40;5.53;;;;;;;19.01;54.13;98899.00;5092051;28;20036;-73
2022/07/20 01:58:21;;;;;;;13.60;5.22;;;;;;;18.99;54.36;98910.44;5092196;28;20183;-73
2022/07/20 02:00:48;;;;;;;10.68;5.63;;;;;;;18.96;54.41;98902.78;5092067;28;20027;-73
2022/07/20 02:03:13;;;;;;;11.50;5.03;;;;;;;18.93;54.28;98899.84;5088835;28;20028;-73
2022/07/20 02:05:39;;;;;;;8.90;5.18;;;;;;;18.87;54.54;98897.28;5092534;28;20106;-73
2022/07/20 02:08:04;;;;;;;9.18;5.90;;;;;;;18.83;54.50;98898.31;5091219;28;20027;-74
2022/07/20 02:10:30;;;;;;;8.52;5.28;;;;;;;18.79;54.38;98898.16;5091689;28;20024;-73
2022/07/20 02:12:56;;;;;;;9.23;5.55;;;;;;;18.76;54.78;98898.84;5091613;28;20036;-73
2022/07/20 02:18:10;;;;;;;9.55;5.47;;;;;;;18.69;54.66;98891.06;5091922;28;20070;-73
2022/07/20 02:20:36;;;;;;;10.05;5.72;;;;;;;18.66;54.89;98896.50;5091401;28;20139;-73
2022/07/20 02:23:03;;;;;;;10.40;5.70;;;;;;;18.63;54.75;98897.19;5091678;28;20459;-73
2022/07/20 02:25:29;;;;;;;13.25;5.30;;;;;;;18.59;54.92;98897.88;5091795;28;20016;-72
2022/07/20 02:27:54;;;;;;;9.73;5.25;;;;;;;18.58;55.05;98892.63;5092151;28;20063;-73
2022/07/20 02:30:20;;;;;;;11.20;5.57;;;;;;;18.53;55.20;98888.09;5073306;28;20112;-73
2022/07/20 02:32:46;;;;;;;11.98;5.40;;;;;;;18.52;55.05;98894.81;5091734;28;20362;-73
2022/07/20 02:35:12;;;;;;;12.43;5.70;;;;;;;18.49;55.39;98903.81;5091603;28;20043;-73
2022/07/20 02:37:37;;;;;;;10.93;5.50;;;;;;;18.45;55.38;98900.91;5091769;28;21514;-73
2022/07/20 02:40:03;;;;;;;9.43;4.72;;;;;;;18.39;55.83;98891.16;5091158;28;20054;-73
2022/07/20 02:42:29;;;;;;;8.73;5.20;;;;;;;18.36;55.47;98896.56;5091259;28;20082;-74
2022/07/20 02:44:54;;;;;;;10.55;5.50;;;;;;;18.33;55.39;98888.94;5073160;28;20468;-73
2022/07/20 02:47:19;;;;;;;7.75;4.90;;;;;;;18.29;55.53;98894.31;5091468;28;20024;-73
2022/07/20 02:49:45;;;;;;;9.63;5.03;;;;;;;18.25;55.95;98894.19;5091220;28;20033;-73
2022/07/20 02:52:10;;;;;;;10.02;4.93;;;;;;;18.25;55.72;98908.09;5090762;28;20455;-73
2022/07/20 02:54:36;;;;;;;9.48;5.03;;;;;;;18.23;56.14;98901.22;5091480;28;20034;-73
2022/07/20 02:57:01;;;;;;;9.98;4.90;;;;;;;18.20;55.87;98904.66;5091517;28;20089;-74
2022/07/20 02:59:27;;;;;;;12.05;5.22;;;;;;;18.19;55.76;98909.41;5090845;28;20034;-73
2022/07/20 03:01:52;;;;;;;9.27;4.55;;;;;;;18.17;56.02;98914.50;5090709;28;20103;-73
2022/07/20 03:04:17;;;;;;;11.45;5.13;;;;;;;18.15;55.92;98919.56;5091212;28;20522;-74
2022/07/20 03:06:43;;;;;;;13.18;5.10;;;;;;;18.12;55.81;98912.75;5091159;28;20055;-73
2022/07/20 03:09:08;;;;;;;10.65;5.32;;;;;;;18.09;56.11;98907.84;5090912;28;20032;-72
2022/07/20 03:11:34;;;;;;;10.05;5.10;;;;;;;18.06;55.92;98911.31;5090973;28;20074;-74
2022/07/20 03:13:59;;;;;;;8.70;5.25;;;;;;;18.04;56.11;98916.38;5090964;28;20064;-73
2022/07/20 03:16:24;;;;;;;7.95;5.40;;;;;;;18.03;56.25;98908.38;5091318;28;20085;-72
2022/07/20 03:18:50;;;;;;;9.98;5.28;;;;;;;18.02;56.40;98912.28;5073132;28;20376;-73
2022/07/20 03:21:15;;;;;;;7.78;5.32;;;;;;;17.98;56.47;98914.91;5090654;28;20048;-73
2022/07/20 03:23:41;;;;;;;8.93;5.18;;;;;;;17.97;56.33;98913.28;5090921;28;20031;-73
2022/07/20 03:26:06;;;;;;;8.13;5.38;;;;;;;17.98;56.40;98912.94;5090941;28;20421;-74
2022/07/20 03:28:32;;;;;;;8.48;5.47;;;;;;;17.98;56.82;98909.34;5090327;28;20052;-73
2022/07/20 03:30:57;;;;;;;10.20;5.35;;;;;;;17.95;56.57;98919.13;5090647;28;20028;-73
2022/07/20 03:33:22;;;;;;;9.65;5.45;;;;;;;17.95;56.67;98921.91;5090256;28;20023;-73
2022/07/20 03:35:48;;;;;;;8.35;5.38;;;;;;;17.96;56.91;98926.31;5090461;28;20027;-73
2022/07/20 03:38:13;;;;;;;9.70;5.60;;;;;;;17.98;56.67;98934.31;5090545;28;20035;-73
2022/07/20 03:40:39;;;;;;;8.25;5.63;;;;;;;17.99;56.63;98935.97;5093610;28;20024;-73
2022/07/20 03:43:04;;;;;;;9.45;5.55;;;;;;;18.00;56.93;98934.84;5096930;28;20020;-73
2022/07/20 03:45:29;;;;;;;8.70;5.43;;;;;;;18.02;57.03;98934.50;5097316;28;20042;-73
2022/07/20 03:47:55;;;;;;;8.70;5.80;;;;;;;18.03;57.03;98944.44;5097468;28;20027;-73
2022/07/20 03:50:21;;;;;;;11.70;5.65;;;;;;;18.05;57.19;98942.16;5097043;28;20031;-74
2022/07/20 03:52:46;;;;;;;11.20;5.97;;;;;;;18.07;57.18;98945.41;5096953;28;20021;-73
2022/07/20 03:55:12;;;;;;;9.48;5.55;;;;;;;18.09;56.97;98941.16;5096997;28;20168;-73
2022/07/20 03:57:37;;;;;;;12.13;5.60;;;;;;;18.13;57.31;98944.91;5097509;28;20039;-73
2022/07/20 04:00:04;;;;;;;13.70;5.72;;;;;;;18.17;57.12;98947.81;5096679;28;20038;-73
2022/07/20 04:02:30;;;;;;;11.95;5.60;;;;;;;18.20;57.24;98943.53;5097060;28;20037;-73
2022/07/20 04:04:55;;;;;;;10.25;5.50;;;;;;;18.23;57.02;98942.88;5097199;28;20168;-73
2022/07/20 04:07:20;;;;;;;10.45;5.78;;;;;;;18.24;57.49;98953.66;5097255;28;20043;-73
2022/07/20 04:09:49;;;;;;;10.95;5.80;;;;;;;18.26;57.58;98951.34;5096663;28;20061;-73
2022/07/20 04:12:22;;;;;;;7.95;5.30;;;;;;;18.31;57.30;98944.78;5097112;28;20028;-73
2022/07/20 04:14:49;;;;;;;11.00;5.35;;;;;;;18.35;57.25;98954.06;5097051;28;20067;-72
2022/07/20 04:17:15;;;;;;;10.60;5.60;;;;;;;18.40;57.64;98947.50;5097273;28;20028;-73
2022/07/20 04:19:41;;;;;;;10.75;5.47;;;;;;;18.43;57.46;98950.44;5096380;28;20058;-73
2022/07/20 04:22:08;;;;;;;10.50;5.28;;;;;;;18.50;57.52;98946.31;5096940;28;20387;-73
2022/07/20 04:24:33;;;;;;;9.60;5.35;;;;;;;18.53;57.46;98945.63;5096786;28;20097;-74
2022/07/20 04:26:59;;;;;;;13.35;5.13;;;;;;;18.57;57.20;98949.34;5078509;28;20472;-73
2022/07/20 04:29:25;;;;;;;9.73;5.75;;;;;;;18.62;57.38;98946.34;5096485;28;20028;-73
2022/07/20 04:31:51;;;;;;;11.18;6.05;;;;;;;18.66;57.53;98952.88;5096817;28;20047;-73
2022/07/20 04:34:17;;;;;;;10.52;5.68;;;;;;;18.70;57.27;98948.25;5096638;28;20114;-73
2022/07/20 04:36:43;;;;;;;11.05;5.72;;;;;;;18.74;57.48;98949.22;5096982;28;20036;-74
2022/07/20 04:39:08;;;;;;;9.68;6.05;;;;;;;18.80;57.26;98946.22;5096730;28;20100;-75
2022/07/20 04:41:33;;;;;;;10.43;5.95;;;;;;;18.85;57.12;98959.94;5096825;28;20035;-75
2022/07/20 04:43:59;;;;;;;14.63;5.82;;;;;;;18.89;57.03;98946.97;5096410;28;20020;-74
2022/07/20 04:46:25;;;;;;;12.07;5.95;;;;;;;18.95;57.22;98953.94;5096433;28;20023;-74
2022/07/20 04:48:50;;;;;;;11.32;5.45;;;;;;;19.01;57.06;98949.03;5096059;28;20034;-75
2022/07/20 04:51:16;;;;;;;9.80;5.93;;;;;;;19.06;57.38;98954.38;5095493;28;20034;-74
2022/07/20 04:53:41;;;;;;;11.60;6.07;;;;;;;19.14;57.24;98958.22;5092964;28;20085;-74
2022/07/20 04:56:09;;;;;;;11.48;6.38;;;;;;;19.17;57.14;98960.31;5093090;28;20175;-75
2022/07/20 04:58:35;;;;;;;15.27;6.22;;;;;;;19.21;57.02;98949.31;5093433;28;20075;-75
2022/07/20 05:01:01;;;;;;;13.95;6.00;;;;;;;19.27;57.24;98959.09;5075439;28;20032;-75
2022/07/20 05:03:26;;;;;;;12.07;5.95;;;;;;;19.33;56.97;98963.28;5093740;28;20053;-75
2022/07/20 05:05:52;;;;;;;12.77;6.63;;;;;;;19.39;56.85;98964.69;5092990;28;20020;-74
2022/07/20 05:08:17;;;;;;;12.77;6.30;;;;;;;19.45;57.21;98960.53;5093299;28;20020;-75
2022/07/20 05:10:43;;;;;;;11.85;5.72;;;;;;;19.50;57.24;98959.50;5092984;28;20028;-74
2022/07/20 05:13:08;;;;;;;10.88;5.93;;;;;;;19.57;57.54;98967.28;5093322;28;20114;-73
2022/07/20 05:15:34;;;;;;;9.20;5.32;;;;;;;19.64;57.15;98967.53;5093583;28;20040;-74
2022/07/20 05:17:59;;;;;;;13.10;5.90;;;;;;;19.70;57.22;98966.16;5092973;28;20024;-75
2022/07/20 05:20:24;;;;;;;10.32;5.57;;;;;;;19.78;57.32;98972.75;5092704;28;20450;-74
2022/07/20 05:22:50;;;;;;;15.32;6.10;;;;;;;19.87;56.96;98969.91;5074296;28;20242;-75
2022/07/20 05:25:15;;;;;;;13.52;6.43;;;;;;;19.92;56.91;98964.13;5074542;28;20020;-75
2022/07/20 05:27:41;;;;;;;10.95;5.63;;;;;;;19.98;56.64;98970.28;5092887;28;20089;-76
2022/07/20 05:30:07;;;;;;;11.65;5.43;;;;;;;20.04;56.27;98969.69;5073865;28;20035;-75
2022/07/20 05:32:32;;;;;;;8.88;4.97;;;;;;;20.13;56.25;98977.13;5092509;28;20032;-75
2022/07/20 05:34:57;;;;;;;8.43;4.65;;;;;;;20.20;56.13;98967.00;5093026;28;20089;-76
2022/07/20 05:37:23;;;;;;;8.48;4.90;;;;;;;20.29;55.99;98968.88;5093090;28;20020;-75
2022/07/20 05:39:48;;;;;;;8.13;4.43;;;;;;;20.35;56.04;98973.06;5092362;28;20024;-75
2022/07/20 05:42:14;;;;;;;7.97;4.40;;;;;;;20.43;55.63;98969.34;5092102;28;20020;-76
2022/07/20 05:44:39;;;;;;;9.48;4.97;;;;;;;20.50;55.41;98969.56;5092374;28;20050;-75
2022/07/20 05:47:09;;;;;;;13.77;5.30;;;;;;;20.59;55.33;98972.22;5092442;28;20436;-75
2022/07/20 05:49:35;;;;;;;;;;;;;;;20.67;55.09;98976.00;5092537;28;20020;-75
2022/07/20 05:52:00;;;;;;;18.27;7.82;;;;;;;20.75;55.24;98968.72;5092409;28;19916;-75
2022/07/20 05:54:26;;;;;;;17.52;8.52;;;;;;;20.80;54.88;98974.03;5092696;28;20586;-75
2022/07/20 05:56:52;;;;;;;19.95;8.65;;;;;;;20.88;54.97;98972.28;5073846;28;20028;-75
2022/07/20 05:59:17;;;;;;;16.92;8.70;;;;;;;20.96;54.99;98971.34;5091918;28;20031;-75
2022/07/20 06:01:44;;;;;;;16.92;8.15;;;;;;;21.03;54.60;98974.31;5092163;28;20028;-75
2022/07/20 06:04:11;;;;;;;18.20;8.20;;;;;;;21.14;54.60;98974.66;5091732;28;20058;-75
2022/07/20 06:06:37;;;;;;;18.35;8.18;;;;;;;21.23;54.51;98971.69;5092178;28;20055;-75
2022/07/20 06:09:04;;;;;;;16.85;8.63;;;;;;;21.33;54.49;98981.53;5091750;28;20031;-74
2022/07/20 06:11:30;;;;;;;15.68;8.50;;;;;;;21.41;54.26;98977.78;5091787;28;20020;-74
2022/07/20 06:13:55;;;;;;;18.02;8.18;;;;;;;21.51;54.04;98977.25;5091892;28;20491;-74
2022/07/20 06:16:21;;;;;;;17.58;8.10;;;;;;;21.59;53.95;98978.25;5091838;28;20032;-74
2022/07/20 06:18:46;;;;;;;17.33;8.20;;;;;;;21.69;53.74;98974.97;5091583;28;20093;-74
2022/07/20 06:21:13;;;;;;;17.33;8.35;;;;;;;21.80;53.63;98975.25;5091867;28;20052;-75
2022/07/20 06:23:39;;;;;;;18.63;7.82;;;;;;;21.91;53.57;98980.31;5091986;28;20051;-75
2022/07/20 06:26:05;;;;;;;13.85;7.07;;;;;;;22.01;53.38;98979.75;5091264;28;20026;-74
2022/07/20 06:28:30;;;;;;;15.40;7.18;;;;;;;22.11;53.40;98987.56;5090611;28;20117;-74
2022/07/20 06:30:55;;;;;;;16.27;8.25;;;;;;;22.21;53.21;98985.41;5091133;28;20026;-74
2022/07/20 06:33:21;;;;;;;16.80;8.07;;;;;;;22.28;52.90;98989.19;5091309;28;20031;-74
2022/07/20 06:35:46;;;;;;;19.30;9.20;;;;;;;22.37;52.73;98989.00;5091411;28;20119;-74
2022/07/20 06:38:12;;;;;;;17.67;8.30;;;;;;;22.47;52.68;98986.84;5090944;28;20044;-74
2022/07/20 06:40:37;;;;;;;15.45;8.50;;;;;;;22.57;52.58;98983.50;5091259;28;20035;-74
2022/07/20 06:43:02;;;;;;;21.08;8.00;;;;;;;22.66;52.33;98986.06;5090484;28;20095;-73
2022/07/20 06:45:28;;;;;;;16.92;8.30;;;;;;;22.76;52.42;98988.31;5088049;28;20028;-73
2022/07/20 06:47:53;;;;;;;18.05;9.13;;;;;;;22.87;52.36;98994.13;5072544;28;20452;-74
2022/07/20 06:50:19;;;;;;;18.02;9.50;;;;;;;22.99;52.09;98993.22;5090304;28;20085;-74
2022/07/20 06:52:44;;;;;;;19.52;9.88;;;;;;;23.10;52.23;98991.41;5089474;28;20036;-73
2022/07/20 06:55:10;;;;;;;23.00;11.38;;;;;;;23.22;52.15;98992.47;5090572;28;20039;-75
2022/07/20 06:57:35;;;;;;;25.33;11.43;;;;;;;23.33;51.98;98997.13;5090316;28;20047;-73
2022/07/20 07:00:01;;;;;;;24.70;11.25;;;;;;;23.44;51.69;99008.50;5089829;28;20105;-74
2022/07/20 07:02:26;;;;;;;21.00;10.82;;;;;;;23.54;51.81;99004.34;5090719;28;20644;-74
2022/07/20 07:04:51;;;;;;;17.55;10.48;;;;;;;23.66;51.69;99005.31;5090483;28;20063;-73
2022/07/20 07:07:17;;;;;;;21.35;10.60;;;;;;;23.76;51.52;98993.50;5090250;28;20035;-75
2022/07/20 07:09:42;;;;;;;20.83;9.93;;;;;;;23.85;51.30;99010.06;5089894;28;20058;-74
2022/07/20 07:12:09;;;;;;;22.15;11.05;;;;;;;23.93;51.04;99001.44;5089985;28;20589;-76
2022/07/20 07:14:36;;;;;;;24.90;10.90;;;;;;;24.02;50.99;98992.81;5089664;28;20039;-74
2022/07/20 07:17:02;;;;;;;22.77;10.23;;;;;;;24.15;51.05;98996.22;5090099;28;20024;-75
2022/07/20 07:19:27;;;;;;;15.77;8.73;;;;;;;24.25;50.61;98991.97;5090159;28;20040;-75
2022/07/20 07:21:53;;;;;;;16.55;8.38;;;;;;;24.36;50.39;98994.97;5090205;28;20080;-73
2022/07/20 07:24:18;;;;;;;11.80;6.32;;;;;;;24.48;50.08;98996.72;5090315;28;20024;-73
2022/07/20 07:26:43;;;;;;;11.93;6.60;;;;;;;24.58;49.26;99004.50;5090475;28;20468;-74
2022/07/20 07:29:09;;;;;;;10.38;5.40;;;;;;;24.69;49.49;99007.47;5089805;28;20047;-73
2022/07/20 07:31:35;;;;;;;10.63;4.90;;;;;;;24.77;48.78;99005.59;5089915;28;20071;-74
2022/07/20 07:34:00;;;;;;;10.02;5.20;;;;;;;24.87;47.88;99004.94;5089980;28;20067;-74
2022/07/20 07:36:26;;;;;;;9.55;4.78;;;;;;;24.95;48.23;99009.47;5089371;28;20024;-74
2022/07/20 07:38:53;;;;;;;9.15;4.25;;;;;;;25.04;48.00;99014.00;5071728;28;20485;-75
2022/07/20 07:41:18;;;;;;;7.30;4.95;;;;;;;25.14;47.91;99004.88;5089462;28;20016;-75
2022/07/20 07:43:44;;;;;;;9.07;4.50;;;;;;;25.25;47.52;99014.25;5089950;28;20017;-74
2022/07/20 07:46:09;;;;;;;7.90;4.45;;;;;;;25.33;46.96;99008.72;5089234;28;20033;-76
2022/07/20 07:48:35;;;;;;;6.38;3.90;;;;;;;25.40;46.56;99012.41;5089545;28;20024;-74
2022/07/20 07:51:00;;;;;;;6.47;4.03;;;;;;;25.47;46.80;99006.13;5089443;28;20066;-75
2022/07/20 07:53:26;;;;;;;7.88;4.30;;;;;;;25.59;46.70;99010.66;5089906;28;20020;-75
2022/07/20 07:55:51;;;;;;;8.80;4.00;;;;;;;25.69;47.12;98998.69;5089852;28;20024;-76
2022/07/20 07:58:17;;;;;;;7.03;3.80;;;;;;;25.79;46.46;99002.00;5089530;28;20372;-77
2022/07/20 08:00:43;;;;;;;7.28;3.60;;;;;;;25.85;46.06;99000.47;5070996;28;20024;-75
2022/07/20 08:03:09;;;;;;;4.65;3.42;;;;;;;25.93;45.43;98995.72;5089566;28;20028;-77
2022/07/20 08:05:35;;;;;;;5.60;3.60;;;;;;;25.99;45.62;98999.78;5090017;28;20032;-76
2022/07/20 08:08:08;;;;;;;6.70;3.58;;;;;;;26.08;44.68;99005.91;5089416;28;20032;-75
2022/07/20 08:10:34;;;;;;;5.68;3.60;;;;;;;26.14;44.65;99004.38;5067607;28;20478;-75
2022/07/20 08:13:00;;;;;;;9.02;3.67;;;;;;;26.25;44.96;99000.84;5088904;28;20103;-75
2022/07/20 08:15:25;;;;;;;5.75;3.67;;;;;;;26.33;44.47;98998.91;5088017;28;20076;-74
2022/07/20 08:17:52;;;;;;;5.30;3.40;;;;;;;26.40;44.27;98990.53;5088269;28;20035;-75
2022/07/20 08:20:22;;;;;;;8.02;3.80;;;;;;;26.47;43.96;98995.38;5085466;28;20059;-75
2022/07/20 08:22:48;;;;;;;6.40;3.50;;;;;;;26.56;44.22;98995.84;5085435;28;20032;-74
2022/07/20 08:25:14;;;;;;;6.55;3.30;;;;;;;26.68;43.92;98994.72;5088812;28;20077;-74
2022/07/20 08:27:39;;;;;;;5.43;3.55;;;;;;;26.79;43.43;98992.78;5091472;28;20028;-77
2022/07/20 08:30:05;;;;;;;7.68;3.40;;;;;;;26.87;43.50;98990.84;5091291;28;20032;-74
2022/07/20 08:32:31;;;;;;;7.07;3.55;;;;;;;26.97;43.66;98992.06;5092757;28;20494;-73
2022/07/20 08:34:57;;;;;;;5.32;3.10;;;;;;;27.05;43.01;98988.09;5091947;28;20024;-74
2022/07/20 08:37:23;;;;;;;9.93;3.80;;;;;;;27.16;42.23;99000.22;5073124;28;20498;-79
2022/07/20 08:39:52;;;;;;;6.53;3.50;;;;;;;27.26;41.88;98986.59;5090537;28;20480;-75
2022/07/20 08:42:17;;;;;;;4.93;3.30;;;;;;;27.35;42.59;98989.81;5090890;28;20022;-74
2022/07/20 08:44:44;;;;;;;7.07;3.38;;;;;;;27.45;42.53;98991.88;5091107;28;20020;-77
2022/07/20 08:47:14;;;;;;;8.38;3.13;;;;;;;27.53;42.36;98987.06;5090695;28;20184;-73
2022/07/20 08:49:44;;;;;;;8.82;3.47;;;;;;;27.66;42.40;98992.34;5090534;28;20036;-78
2022/07/20 08:52:10;;;;;;;8.40;4.22;;;;;;;27.81;42.46;98988.34;5092362;28;20028;-77
2022/07/20 08:54:36;;;;;;;5.85;3.13;;;;;;;27.89;41.25;98984.34;5093068;28;20106;-78
2022/07/20 08:57:12;;;;;;;5.75;3.10;;;;;;;27.96;40.29;98991.16;5092698;28;20490;-78
2022/07/20 08:59:37;;;;;;;4.45;2.63;;;;;;;28.04;40.33;98993.63;5089852;28;20605;-75
2022/07/20 09:02:06;;;;;;;7.30;3.10;;;;;;;28.13;40.35;98993.22;5090840;28;20107;-75
2022/07/20 09:04:32;;;;;;;7.32;2.95;;;;;;;28.25;40.08;98992.03;5089912;28;20043;-77
2022/07/20 09:06:58;;;;;;;5.45;3.08;;;;;;;28.33;39.87;98990.81;5092200;28;20032;-78
2022/07/20 09:09:24;;;;;;;7.18;2.92;;;;;;;28.42;38.32;98984.75;5070317;28;20041;-76
2022/07/20 09:11:50;;;;;;;7.32;2.90;;;;;;;28.46;38.44;98982.72;5085172;28;20038;-77
2022/07/20 09:14:52;;;;;;;6.40;3.03;;;;;;;28.55;38.81;98989.97;5089525;28;20079;-78
2022/07/20 09:17:22;;;;;;;5.82;2.95;;;;;;;28.66;38.26;98985.13;5073516;28;20024;-78
2022/07/20 09:20:01;;;;;;;3.83;2.42;;;;;;;28.68;37.15;98986.31;5073680;28;20113;-79
2022/07/20 09:22:37;;;;;;;4.00;2.83;;;;;;;28.81;37.18;98988.75;5091927;28;20032;-79
2022/07/20 09:25:09;;;;;;;5.30;2.75;;;;;;;29.00;37.47;98983.81;5071656;28;20784;-78
2022/07/20 09:27:35;;;;;;;5.03;3.10;;;;;;;29.04;37.64;98981.78;5087712;28;20016;-80
2022/07/20 09:30:13;;;;;;;5.38;2.75;;;;;;;29.08;37.01;98977.75;5091282;28;20032;-76
2022/07/20 09:32:50;;;;;;;5.95;2.63;;;;;;;29.11;36.82;98979.78;5084373;28;20659;-75
2022/07/20 09:35:16;;;;;;;7.68;3.05;;;;;;;29.15;35.89;98976.09;5089267;28;20531;-75
2022/07/20 09:37:57;;;;;;;5.45;2.85;;;;;;;29.21;36.37;98971.63;5090124;28;20036;-74
2022/07/20 09:40:24;;;;;;;6.63;3.60;;;;;;;29.34;35.89;98972.78;5088806;28;20028;-77
2022/07/20 09:42:49;;;;;;;3.47;2.50;;;;;;;29.48;36.19;98969.09;5089083;28;20381;-77
2022/07/20 09:45:29;;;;;;;7.55;3.42;;;;;;;29.61;35.95;98966.59;5088353;28;20032;-75
2022/07/20 09:48:04;;;;;;;4.93;2.90;;;;;;;29.67;35.35;98966.97;5090668;28;20028;-77
2022/07/20 09:50:31;;;;;;;3.30;2.72;;;;;;;29.70;34.98;98968.97;5090737;28;20488;-78
2022/07/20 09:52:58;;;;;;;4.75;2.78;;;;;;;29.77;34.66;98968.13;5091325;28;20061;-77
2022/07/20 09:55:43;;;;;;;4.82;3.20;;;;;;;29.88;34.34;98957.53;5092839;28;20429;-76
2022/07/20 09:58:09;;;;;;;3.58;3.00;;;;;;;29.91;34.72;98959.53;5090746;28;20042;-74
2022/07/20 10:00:36;;;;;;;5.57;3.00;;;;;;;30.05;34.43;98955.81;5089685;28;20032;-78
2022/07/20 10:03:03;;;;;;;4.68;2.90;;;;;;;30.08;33.72;98954.16;5090356;28;20103;-77
2022/07/20 10:05:32;;;;;;;5.05;2.90;;;;;;;30.13;34.35;98953.72;5090188;28;20431;-75
2022/07/20 10:08:21;;;;;;;4.68;3.30;;;;;;;30.18;33.35;98952.44;5091331;28;20019;-79
2022/07/20 10:10:48;;;;;;;6.18;3.55;;;;;;;30.23;33.47;98961.31;5091498;28;20024;-78
2022/07/20 10:13:13;;;;;;;7.03;3.78;;;;;;;30.34;33.96;98951.94;5091049;28;20055;-78
2022/07/20 10:15:52;;;;;;;7.10;3.55;;;;;;;30.40;33.22;98959.53;5090673;28;20087;-76
2022/07/20 10:18:19;;;;;;;5.38;3.00;;;;;;;30.44;32.82;98956.66;5090989;28;20369;-78
2022/07/20 10:20:44;;;;;;;4.35;2.47;;;;;;;30.48;32.78;98956.63;5090410;28;20051;-75
2022/07/20 10:23:15;;;;;;;4.82;2.75;;;;;;;30.48;32.76;98948.94;5090305;28;20024;-72
2022/07/20 10:25:45;;;;;;;3.20;2.60;;;;;;;30.48;32.10;98956.63;5088306;28;20377;-74
2022/07/20 10:28:23;;;;;;;4.88;2.97;;;;;;;30.56;32.69;98955.34;5091277;28;20024;-74
2022/07/20 10:30:57;;;;;;;5.78;2.92;;;;;;;30.67;32.45;98961.69;5083618;28;20032;-73
2022/07/20 10:33:25;;;;;;;4.20;2.67;;;;;;;30.79;32.27;98959.56;5089705;28;20115;-71
2022/07/20 10:35:51;;;;;;;3.50;2.58;;;;;;;30.84;32.99;98962.72;5072498;28;20463;-76
2022/07/20 10:38:19;;;;;;;4.70;2.70;;;;;;;30.92;32.05;98957.78;5090086;28;20463;-76
2022/07/20 10:44:26;;;;;;;4.20;2.03;;;;;;;30.96;31.96;98949.22;5091276;28;20131;-75
2022/07/20 10:46:51;;;;;;;5.13;2.60;;;;;;;31.05;31.87;98946.69;5020265;28;20032;-76
2022/07/20 10:49:17;;;;;;;6.68;2.33;;;;;;;31.18;32.35;98944.91;5090703;28;20024;-76
2022/07/20 10:52:03;;;;;;;6.72;3.00;;;;;;;31.31;31.91;98948.00;5086581;28;20024;-81
2022/07/20 10:54:32;;;;;;;4.75;2.47;;;;;;;31.41;31.77;98943.41;5083629;28;20353;-74
2022/07/20 10:57:01;;;;;;;16.35;3.00;;;;;;;31.46;30.82;98940.09;5089510;28;20066;-75
2022/07/20 10:59:27;;;;;;;5.80;2.75;;;;;;;31.48;31.32;98936.81;5088674;28;20028;-74
2022/07/20 11:01:53;;;;;;;3.78;2.60;;;;;;;31.50;31.42;98936.41;5089816;28;20403;-75
2022/07/20 11:04:22;;;;;;;3.67;2.35;;;;;;;31.53;31.11;98936.34;5087969;28;20055;-76
2022/07/20 11:06:49;;;;;;;3.28;2.40;;;;;;;31.53;30.79;98938.38;5088706;28;20035;-74
2022/07/20 11:09:15;;;;;;;3.92;2.42;;;;;;;31.55;31.20;98939.56;5069674;28;20111;-76
2022/07/20 11:11:42;;;;;;;5.35;2.60;;;;;;;31.61;31.37;98935.00;5089349;28;20115;-75
2022/07/20 11:14:10;;;;;;;5.45;2.72;;;;;;;31.67;31.43;98929.66;5088851;28;20028;-75
2022/07/20 11:16:37;;;;;;;;;;;;;;;31.78;31.33;98923.84;5088196;28;20110;-72
2022/07/20 11:19:04;;;;;;;3.40;2.67;;;;;;;31.83;30.99;98940.34;5089223;28;19930;-74
2022/07/20 11:21:34;;;;;;;3.60;2.60;;;;;;;31.85;30.46;98931.44;5087537;28;20136;-74
2022/07/20 11:24:00;;;;;;;13.88;3.08;;;;;;;31.90;30.94;98931.72;5089599;28;20914;-75
2022/07/20 11:26:25;;;;;;;3.90;2.75;;;;;;;31.95;30.29;98929.63;5085090;28;20036;-74
2022/07/20 11:28:52;;;;;;;5.82;2.40;;;;;;;32.04;30.58;98927.06;5089711;28;20036;-77
2022/07/20 11:31:22;;;;;;;4.68;2.35;;;;;;;32.06;30.26;98925.38;5087212;28;20691;-75
2022/07/20 11:33:50;;;;;;;3.90;2.20;;;;;;;32.11;29.92;98920.44;5087471;28;20023;-73
2022/07/20 11:36:28;;;;;;;4.05;2.28;;;;;;;32.16;29.57;98922.78;5088931;28;20137;-74